Punta Gialla — IWUC — position and weather

sailwx.info

Track history (hours):
 
Tides and Currents Weather Stations Pressure Air Temp Water Temp Dewpoint Dewpoint Depression Visibility Wind Speed Wind Dir Waves Ship Positions

Punta Gialla

Last reported at 2016-Feb-12 19:30 UTC. Time now 2016-Feb-13 00:30 UTC.
Position N 44°24' E 008°54'.

Length 52 m; draft 1.8 m.

Type: Tanker. MMSI: 247077500.

Date/timePositionNaut miles runAvg speedWind from/ knotsBaromVisibWave heightAir tempDewpointWater temp
2016-Feb-12 19:30N 44°24' E 008°54'0 0.0
2016-Feb-12 18:33N 44°24' E 008°54'0 0.0
2016-Feb-12 17:33N 44°24' E 008°54'0 0.0
2016-Feb-12 16:31N 44°24' E 008°54'0 0.0
2016-Feb-12 15:28N 44°24' E 008°54'1 0.6
2016-Feb-12 14:34N 44°24' E 008°55'0 0.4
2016-Feb-12 13:29N 44°25' E 008°55'0 0.2
2016-Feb-12 12:31N 44°25' E 008°55'1 0.5
2016-Feb-12 11:31N 44°24' E 008°54'0 0.0
2016-Feb-12 10:24N 44°24' E 008°54'0 0.0
2016-Feb-12 09:11N 44°24' E 008°54'0 0.1
2016-Feb-12 08:33N 44°24' E 008°54'0 0.0
2016-Feb-11 20:16N 44°24' E 008°54'0 0.0
2016-Feb-11 19:32N 44°24' E 008°54'0 0.1
2016-Feb-11 18:33N 44°24' E 008°54'8 7.5
2016-Feb-11 17:31N 44°21' E 008°45'9 8.8
2016-Feb-11 16:33N 44°17' E 008°34'5 5.2
2016-Feb-11 15:33N 44°16' E 008°27'0 0.0
2016-Feb-11 14:33N 44°16' E 008°27'3 3.4
2016-Feb-11 13:33N 44°16' E 008°32'8 8.4
2016-Feb-11 12:33N 44°19' E 008°43'8 8.2
2016-Feb-11 11:33N 44°24' E 008°52'2 1.7
2016-Feb-11 10:33N 44°24' E 008°54'0 0.0
2016-Feb-11 09:33N 44°24' E 008°54'0 0.0
2016-Feb-11 08:33N 44°24' E 008°54'0 0.0
2016-Feb-11 07:33N 44°24' E 008°54'0 0.0
2016-Feb-11 06:33N 44°24' E 008°54'0 0.0
2016-Feb-10 18:08N 44°24' E 008°54'0 0.0
2016-Feb-10 17:33N 44°24' E 008°54'2 2.4
2016-Feb-10 16:33N 44°23' E 008°52'8 7.5
2016-Feb-10 15:33N 44°20' E 008°42'8 8.0
2016-Feb-10 14:33N 44°19' E 008°31'1 0.8
2016-Feb-10 13:33N 44°19' E 008°30'0 0.0
2016-Feb-10 12:33N 44°19' E 008°30'0 0.0
2016-Feb-10 11:33N 44°19' E 008°30'0 0.0
2016-Feb-10 10:33N 44°19' E 008°30'0 0.0
2016-Feb-10 09:33N 44°19' E 008°30'0 0.0
2016-Feb-10 08:33N 44°19' E 008°30'0 0.0
2016-Feb-10 07:33N 44°19' E 008°30'0 0.0
2016-Feb-10 06:33N 44°19' E 008°30'0 0.0
2016-Feb-10 05:33N 44°19' E 008°30'0 0.0
2016-Feb-10 04:33N 44°19' E 008°30'0 0.0
2016-Feb-10 03:33N 44°19' E 008°30'0 0.0
2016-Feb-10 02:33N 44°19' E 008°30'0 0.0
2016-Feb-10 01:33N 44°19' E 008°30'0 0.0
2016-Feb-10 00:33N 44°19' E 008°30'0 0.0
2016-Feb-09 23:33N 44°19' E 008°30'0 0.0
2016-Feb-09 22:33N 44°19' E 008°30'0 0.0
2016-Feb-09 21:33N 44°19' E 008°30'0 0.0
2016-Feb-09 20:33N 44°19' E 008°30'0 0.0
2016-Feb-09 19:33N 44°19' E 008°30'0 0.0
2016-Feb-09 18:33N 44°19' E 008°30'0 0.0
2016-Feb-09 17:33N 44°19' E 008°30'0 0.0
2016-Feb-09 16:33N 44°19' E 008°30'0 0.0
2016-Feb-09 15:33N 44°19' E 008°30'0 0.1
2016-Feb-09 14:33N 44°19' E 008°30'0 0.1
2016-Feb-09 13:33N 44°19' E 008°30'0 0.0
2016-Feb-09 12:33N 44°19' E 008°30'0 0.0
2016-Feb-09 11:33N 44°19' E 008°30'1 1.1
2016-Feb-09 10:33N 44°19' E 008°31'6 5.8
2016-Feb-09 09:33N 44°20' E 008°39'7 6.4
2016-Feb-09 08:29N 44°22' E 008°48'5 5.0
2016-Feb-09 07:32N 44°24' E 008°54'0 0.0
2016-Feb-08 15:31N 44°24' E 008°54'0 0.0
2016-Feb-08 14:30N 44°24' E 008°54'0 0.0
2016-Feb-08 13:30N 44°24' E 008°54'0 0.0
2016-Feb-08 12:32N 44°24' E 008°54'0 0.0
2016-Feb-08 11:33N 44°24' E 008°54'0 0.0
2016-Feb-08 10:33N 44°24' E 008°54'0 0.0
2016-Feb-08 09:33N 44°24' E 008°54'0 0.0
2016-Feb-08 08:33N 44°24' E 008°54'0 0.0
2016-Feb-08 07:33N 44°24' E 008°54'0 0.0
2016-Feb-06 14:33N 44°24' E 008°54'0 0.4
2016-Feb-06 13:33N 44°24' E 008°54'0 0.0
2016-Feb-06 12:33N 44°24' E 008°54'0 0.0
2016-Feb-06 11:33N 44°24' E 008°54'0 0.0
2016-Feb-06 10:33N 44°24' E 008°54'1 0.9
2016-Feb-06 09:33N 44°24' E 008°55'0 0.4
2016-Feb-06 08:33N 44°24' E 008°54'0 0.0
2016-Feb-06 07:34N 44°24' E 008°54'0 0.0
2016-Feb-05 16:11N 44°24' E 008°54'0 0.0
2016-Feb-05 15:34N 44°24' E 008°54'0 0.0
2016-Feb-05 14:33N 44°24' E 008°54'0 0.0
2016-Feb-05 13:33N 44°24' E 008°54'0 0.0
2016-Feb-05 12:34N 44°24' E 008°54'0 0.0
2016-Feb-05 11:33N 44°24' E 008°54'0 0.0
2016-Feb-05 10:33N 44°24' E 008°54'0 0.0
2016-Feb-05 09:34N 44°24' E 008°54'0 0.0
2016-Feb-05 08:33N 44°24' E 008°54'0 0.0
2016-Feb-05 07:33N 44°24' E 008°54'0 0.0
2016-Feb-05 06:33N 44°24' E 008°54'0 0.0
2016-Feb-04 15:33N 44°24' E 008°54'4 4.2
2016-Feb-04 14:33N 44°22' E 008°49'8 8.3
2016-Feb-04 13:33N 44°18' E 008°39'8 8.2
2016-Feb-04 12:33N 44°16' E 008°28'1 0.9
2016-Feb-04 11:33N 44°16' E 008°27'0 0.0
2016-Feb-04 10:33N 44°16' E 008°27'6 5.7
2016-Feb-04 09:33N 44°16' E 008°35'8 8.0
2016-Feb-04 08:33N 44°20' E 008°45'7 7.1
2016-Feb-04 07:33N 44°24' E 008°53'1 1.3
2016-Feb-04 06:33N 44°24' E 008°54'0 0.0
2016-Feb-03 19:33N 44°24' E 008°54'0 0.3
2016-Feb-03 18:33N 44°24' E 008°55'0 0.4
2016-Feb-03 17:33N 44°24' E 008°55'0 0.0
2016-Feb-03 16:33N 44°24' E 008°55'0 0.0
2016-Feb-03 15:33N 44°24' E 008°55'0 0.1
2016-Feb-03 14:33N 44°24' E 008°55'0 0.0
2016-Feb-03 13:33N 44°24' E 008°55'0 0.0
2016-Feb-03 12:33N 44°24' E 008°55'1 0.5
2016-Feb-03 11:33N 44°24' E 008°54'0 0.0
2016-Feb-03 10:33N 44°24' E 008°54'0 0.0
2016-Feb-03 09:33N 44°24' E 008°54'0 0.0
2016-Feb-03 08:33N 44°24' E 008°54'  
Track history (hours):
 
Tides and Currents Weather Stations Pressure Air Temp Water Temp Dewpoint Dewpoint Depression Visibility Wind Speed Wind Dir Waves Ship Positions

Punta Gialla

Last reported at 2016-Feb-12 19:30 UTC. Time now 2016-Feb-13 00:30 UTC.
Position N 44°24' E 008°54'.

Length 52 m; draft 1.8 m.

Type: Tanker. MMSI: 247077500.

Date/timePositionNaut miles runAvg speedWind from/ knotsBaromVisibWave heightAir tempDewpointWater temp
2016-Feb-12 19:30N 44°24' E 008°54'0 0.0
2016-Feb-12 18:33N 44°24' E 008°54'0 0.0
2016-Feb-12 17:33N 44°24' E 008°54'0 0.0
2016-Feb-12 16:31N 44°24' E 008°54'0 0.0
2016-Feb-12 15:28N 44°24' E 008°54'1 0.6
2016-Feb-12 14:34N 44°24' E 008°55'0 0.4
2016-Feb-12 13:29N 44°25' E 008°55'0 0.2
2016-Feb-12 12:31N 44°25' E 008°55'1 0.5
2016-Feb-12 11:31N 44°24' E 008°54'0 0.0
2016-Feb-12 10:24N 44°24' E 008°54'0 0.0
2016-Feb-12 09:11N 44°24' E 008°54'0 0.1
2016-Feb-12 08:33N 44°24' E 008°54'0 0.0
2016-Feb-11 20:16N 44°24' E 008°54'0 0.0
2016-Feb-11 19:32N 44°24' E 008°54'0 0.1
2016-Feb-11 18:33N 44°24' E 008°54'8 7.5
2016-Feb-11 17:31N 44°21' E 008°45'9 8.8
2016-Feb-11 16:33N 44°17' E 008°34'5 5.2
2016-Feb-11 15:33N 44°16' E 008°27'0 0.0
2016-Feb-11 14:33N 44°16' E 008°27'3 3.4
2016-Feb-11 13:33N 44°16' E 008°32'8 8.4
2016-Feb-11 12:33N 44°19' E 008°43'8 8.2
2016-Feb-11 11:33N 44°24' E 008°52'2 1.7
2016-Feb-11 10:33N 44°24' E 008°54'0 0.0
2016-Feb-11 09:33N 44°24' E 008°54'0 0.0
2016-Feb-11 08:33N 44°24' E 008°54'0 0.0
2016-Feb-11 07:33N 44°24' E 008°54'0 0.0
2016-Feb-11 06:33N 44°24' E 008°54'0 0.0
2016-Feb-10 18:08N 44°24' E 008°54'0 0.0
2016-Feb-10 17:33N 44°24' E 008°54'2 2.4
2016-Feb-10 16:33N 44°23' E 008°52'8 7.5
2016-Feb-10 15:33N 44°20' E 008°42'8 8.0
2016-Feb-10 14:33N 44°19' E 008°31'1 0.8
2016-Feb-10 13:33N 44°19' E 008°30'0 0.0
2016-Feb-10 12:33N 44°19' E 008°30'0 0.0
2016-Feb-10 11:33N 44°19' E 008°30'0 0.0
2016-Feb-10 10:33N 44°19' E 008°30'0 0.0
2016-Feb-10 09:33N 44°19' E 008°30'0 0.0
2016-Feb-10 08:33N 44°19' E 008°30'0 0.0
2016-Feb-10 07:33N 44°19' E 008°30'0 0.0
2016-Feb-10 06:33N 44°19' E 008°30'0 0.0
2016-Feb-10 05:33N 44°19' E 008°30'0 0.0
2016-Feb-10 04:33N 44°19' E 008°30'0 0.0
2016-Feb-10 03:33N 44°19' E 008°30'0 0.0
2016-Feb-10 02:33N 44°19' E 008°30'0 0.0
2016-Feb-10 01:33N 44°19' E 008°30'0 0.0
2016-Feb-10 00:33N 44°19' E 008°30'0 0.0
2016-Feb-09 23:33N 44°19' E 008°30'0 0.0
2016-Feb-09 22:33N 44°19' E 008°30'0 0.0
2016-Feb-09 21:33N 44°19' E 008°30'0 0.0
2016-Feb-09 20:33N 44°19' E 008°30'0 0.0
2016-Feb-09 19:33N 44°19' E 008°30'0 0.0
2016-Feb-09 18:33N 44°19' E 008°30'0 0.0
2016-Feb-09 17:33N 44°19' E 008°30'0 0.0
2016-Feb-09 16:33N 44°19' E 008°30'0 0.0
2016-Feb-09 15:33N 44°19' E 008°30'0 0.1
2016-Feb-09 14:33N 44°19' E 008°30'0 0.1
2016-Feb-09 13:33N 44°19' E 008°30'0 0.0
2016-Feb-09 12:33N 44°19' E 008°30'0 0.0
2016-Feb-09 11:33N 44°19' E 008°30'1 1.1
2016-Feb-09 10:33N 44°19' E 008°31'6 5.8
2016-Feb-09 09:33N 44°20' E 008°39'7 6.4
2016-Feb-09 08:29N 44°22' E 008°48'5 5.0
2016-Feb-09 07:32N 44°24' E 008°54'0 0.0
2016-Feb-08 15:31N 44°24' E 008°54'0 0.0
2016-Feb-08 14:30N 44°24' E 008°54'0 0.0
2016-Feb-08 13:30N 44°24' E 008°54'0 0.0
2016-Feb-08 12:32N 44°24' E 008°54'0 0.0
2016-Feb-08 11:33N 44°24' E 008°54'0 0.0
2016-Feb-08 10:33N 44°24' E 008°54'0 0.0
2016-Feb-08 09:33N 44°24' E 008°54'0 0.0
2016-Feb-08 08:33N 44°24' E 008°54'0 0.0
2016-Feb-08 07:33N 44°24' E 008°54'0 0.0
2016-Feb-06 14:33N 44°24' E 008°54'0 0.4
2016-Feb-06 13:33N 44°24' E 008°54'0 0.0
2016-Feb-06 12:33N 44°24' E 008°54'0 0.0
2016-Feb-06 11:33N 44°24' E 008°54'0 0.0
2016-Feb-06 10:33N 44°24' E 008°54'1 0.9
2016-Feb-06 09:33N 44°24' E 008°55'0 0.4
2016-Feb-06 08:33N 44°24' E 008°54'0 0.0
2016-Feb-06 07:34N 44°24' E 008°54'0 0.0
2016-Feb-05 16:11N 44°24' E 008°54'0 0.0
2016-Feb-05 15:34N 44°24' E 008°54'0 0.0
2016-Feb-05 14:33N 44°24' E 008°54'0 0.0
2016-Feb-05 13:33N 44°24' E 008°54'0 0.0
2016-Feb-05 12:34N 44°24' E 008°54'0 0.0
2016-Feb-05 11:33N 44°24' E 008°54'0 0.0
2016-Feb-05 10:33N 44°24' E 008°54'0 0.0
2016-Feb-05 09:34N 44°24' E 008°54'0 0.0
2016-Feb-05 08:33N 44°24' E 008°54'0 0.0
2016-Feb-05 07:33N 44°24' E 008°54'0 0.0
2016-Feb-05 06:33N 44°24' E 008°54'0 0.0
2016-Feb-04 15:33N 44°24' E 008°54'4 4.2
2016-Feb-04 14:33N 44°22' E 008°49'8 8.3
2016-Feb-04 13:33N 44°18' E 008°39'8 8.2
2016-Feb-04 12:33N 44°16' E 008°28'1 0.9
2016-Feb-04 11:33N 44°16' E 008°27'0 0.0
2016-Feb-04 10:33N 44°16' E 008°27'6 5.7
2016-Feb-04 09:33N 44°16' E 008°35'8 8.0
2016-Feb-04 08:33N 44°20' E 008°45'7 7.1
2016-Feb-04 07:33N 44°24' E 008°53'1 1.3
2016-Feb-04 06:33N 44°24' E 008°54'0 0.0
2016-Feb-03 19:33N 44°24' E 008°54'0 0.3
2016-Feb-03 18:33N 44°24' E 008°55'0 0.4
2016-Feb-03 17:33N 44°24' E 008°55'0 0.0
2016-Feb-03 16:33N 44°24' E 008°55'0 0.0
2016-Feb-03 15:33N 44°24' E 008°55'0 0.1
2016-Feb-03 14:33N 44°24' E 008°55'0 0.0
2016-Feb-03 13:33N 44°24' E 008°55'0 0.0
2016-Feb-03 12:33N 44°24' E 008°55'1 0.5
2016-Feb-03 11:33N 44°24' E 008°54'0 0.0
2016-Feb-03 10:33N 44°24' E 008°54'0 0.0
2016-Feb-03 09:33N 44°24' E 008°54'0 0.0
2016-Feb-03 08:33N 44°24' E 008°54'  

Dump ship's entire track history